createdAt,value
2018-07-31T00:00:33.767Z,0.00
2018-07-31T00:01:33.711Z,0.00
2018-07-31T00:02:33.654Z,0.00
2018-07-31T00:03:33.684Z,0.00
2018-07-31T00:04:33.536Z,0.00
2018-07-31T00:05:33.479Z,0.00
2018-07-31T00:06:33.419Z,0.00
2018-07-31T00:07:33.363Z,0.00
2018-07-31T00:08:33.303Z,0.00
2018-07-31T00:09:33.248Z,0.00
2018-07-31T00:10:33.222Z,0.00
2018-07-31T00:11:33.132Z,0.00
2018-07-31T00:12:33.072Z,0.00
2018-07-31T00:13:33.018Z,0.00
2018-07-31T00:14:32.961Z,0.00
2018-07-31T00:15:32.900Z,0.00
2018-07-31T00:16:32.842Z,0.00
2018-07-31T00:17:32.786Z,0.00
2018-07-31T00:18:32.728Z,0.00
2018-07-31T00:19:32.669Z,0.00
2018-07-31T00:20:32.611Z,0.00
2018-07-31T00:21:32.553Z,0.00
2018-07-31T00:22:32.499Z,0.00
2018-07-31T00:23:32.440Z,0.00
2018-07-31T00:24:32.379Z,0.00
2018-07-31T00:25:32.324Z,0.00
2018-07-31T00:26:32.263Z,0.00
2018-07-31T00:27:32.205Z,0.00
2018-07-31T00:28:32.149Z,0.00
2018-07-31T00:29:32.090Z,0.00
2018-07-31T00:30:32.030Z,0.00
2018-07-31T00:31:31.977Z,0.00
2018-07-31T00:32:31.917Z,0.00
2018-07-31T00:33:31.860Z,0.00
2018-07-31T00:34:31.800Z,0.00
2018-07-31T00:35:31.742Z,0.00
2018-07-31T00:36:31.684Z,0.00
2018-07-31T00:37:31.627Z,0.00
2018-07-31T00:38:31.568Z,0.00
2018-07-31T00:39:31.511Z,0.00
2018-07-31T00:40:31.451Z,0.00
2018-07-31T00:41:31.394Z,0.00
2018-07-31T00:42:31.336Z,0.00
2018-07-31T00:43:31.278Z,0.00
2018-07-31T00:44:31.220Z,0.00
2018-07-31T00:45:31.162Z,0.00
2018-07-31T00:46:31.104Z,0.00
2018-07-31T00:47:31.045Z,0.00
2018-07-31T00:48:30.987Z,0.00
2018-07-31T00:49:30.931Z,0.00
2018-07-31T00:50:30.872Z,0.00
2018-07-31T00:51:30.813Z,0.00
2018-07-31T00:52:30.755Z,0.00
2018-07-31T00:53:30.698Z,0.00
2018-07-31T00:54:30.639Z,0.00
2018-07-31T00:55:30.579Z,0.00
2018-07-31T00:56:30.523Z,0.00
2018-07-31T00:57:30.465Z,0.00
2018-07-31T00:58:30.409Z,0.00
2018-07-31T00:59:30.347Z,0.00
2018-07-31T01:00:30.292Z,0.00
2018-07-31T01:01:30.232Z,0.00
2018-07-31T01:02:30.174Z,0.00
2018-07-31T01:03:30.118Z,0.00
2018-07-31T01:04:30.058Z,0.00
2018-07-31T01:05:30.010Z,0.00
2018-07-31T01:06:29.940Z,0.00
2018-07-31T01:07:29.882Z,0.00
2018-07-31T01:08:29.825Z,0.00
2018-07-31T01:09:29.767Z,0.00
2018-07-31T01:10:29.708Z,0.00
2018-07-31T01:11:29.649Z,0.00
2018-07-31T01:12:29.592Z,0.00
2018-07-31T01:13:29.534Z,0.00
2018-07-31T01:14:29.474Z,0.00
2018-07-31T01:15:29.417Z,0.00
2018-07-31T01:16:29.358Z,0.00
2018-07-31T01:17:29.302Z,0.00
2018-07-31T01:18:29.241Z,0.00
2018-07-31T01:19:29.189Z,0.00
2018-07-31T01:20:29.126Z,0.00
2018-07-31T01:21:29.067Z,0.00
2018-07-31T01:22:29.009Z,0.00
2018-07-31T01:23:28.950Z,0.00
2018-07-31T01:24:28.891Z,0.00
2018-07-31T01:25:28.835Z,0.00
2018-07-31T01:26:28.776Z,0.00
2018-07-31T01:27:28.721Z,0.00
2018-07-31T01:28:28.660Z,0.00
2018-07-31T01:29:28.601Z,0.00
2018-07-31T01:30:28.541Z,0.00
2018-07-31T01:31:28.486Z,0.00
2018-07-31T01:32:28.426Z,0.00
2018-07-31T01:33:28.368Z,0.00
2018-07-31T01:34:28.307Z,0.00
2018-07-31T01:35:28.252Z,0.00
2018-07-31T01:36:28.193Z,0.00
2018-07-31T01:37:28.134Z,0.00
2018-07-31T01:38:28.076Z,0.00
2018-07-31T01:39:28.017Z,0.00
2018-07-31T01:40:27.956Z,0.00
2018-07-31T01:41:27.903Z,0.00
2018-07-31T01:42:27.840Z,0.00
2018-07-31T01:43:27.781Z,0.00
2018-07-31T01:44:27.726Z,0.00
2018-07-31T01:45:27.665Z,0.00
2018-07-31T01:46:27.608Z,0.00
2018-07-31T01:47:27.552Z,0.00
2018-07-31T01:48:27.490Z,0.00
2018-07-31T01:49:27.433Z,0.00
2018-07-31T01:50:27.373Z,0.00
2018-07-31T01:51:27.315Z,0.00
2018-07-31T01:52:27.258Z,0.00
2018-07-31T01:53:27.200Z,0.00
2018-07-31T01:54:27.140Z,0.00
2018-07-31T01:55:27.083Z,0.00
2018-07-31T01:56:27.024Z,0.00
2018-07-31T01:57:26.969Z,0.00
2018-07-31T01:58:26.907Z,0.00
2018-07-31T01:59:26.848Z,0.00
2018-07-31T02:00:26.790Z,0.00
2018-07-31T02:01:26.732Z,0.00
2018-07-31T02:02:26.673Z,0.00
2018-07-31T02:03:26.613Z,0.00
2018-07-31T02:04:26.559Z,0.00
2018-07-31T02:05:26.500Z,0.00
2018-07-31T02:06:26.440Z,0.00
2018-07-31T02:07:26.382Z,0.00
2018-07-31T02:08:26.324Z,0.00
2018-07-31T02:09:26.267Z,0.00
2018-07-31T02:10:26.204Z,0.00
2018-07-31T02:11:26.148Z,0.00
2018-07-31T02:12:26.090Z,0.00
2018-07-31T02:13:26.031Z,0.00
2018-07-31T02:14:25.973Z,0.00
2018-07-31T02:15:25.913Z,0.00
2018-07-31T02:16:25.856Z,0.00
2018-07-31T02:17:25.866Z,0.00
2018-07-31T02:18:25.737Z,0.00
2018-07-31T02:19:25.680Z,0.00
2018-07-31T02:20:25.621Z,0.00
2018-07-31T02:21:25.564Z,0.00
2018-07-31T02:22:25.503Z,0.00
2018-07-31T02:23:25.445Z,0.00
2018-07-31T02:24:25.388Z,0.00
2018-07-31T02:25:25.328Z,0.00
2018-07-31T02:26:25.275Z,0.00
2018-07-31T02:27:25.213Z,0.00
2018-07-31T02:28:25.396Z,0.00
2018-07-31T02:29:25.095Z,0.00
2018-07-31T02:30:25.040Z,0.00
2018-07-31T02:31:24.979Z,0.00
2018-07-31T02:32:24.922Z,0.00
2018-07-31T02:33:24.860Z,0.00
2018-07-31T02:34:24.803Z,0.00
2018-07-31T02:35:24.745Z,0.00
2018-07-31T02:36:24.686Z,0.00
2018-07-31T02:37:24.628Z,0.00
2018-07-31T02:38:24.571Z,0.00
2018-07-31T02:39:24.512Z,0.00
2018-07-31T02:40:24.465Z,0.00
2018-07-31T02:41:24.395Z,0.00
2018-07-31T02:42:24.334Z,0.00
2018-07-31T02:43:24.278Z,0.00
2018-07-31T02:44:24.220Z,0.00
2018-07-31T02:45:24.162Z,0.00
2018-07-31T02:46:24.100Z,0.00
2018-07-31T02:47:24.042Z,0.00
2018-07-31T02:48:23.985Z,0.00
2018-07-31T02:49:23.925Z,0.00
2018-07-31T02:50:23.867Z,0.00
2018-07-31T02:51:23.810Z,0.00
2018-07-31T02:52:23.751Z,0.00
2018-07-31T02:53:23.702Z,0.00
2018-07-31T02:54:23.633Z,0.00
2018-07-31T02:55:23.573Z,0.00
2018-07-31T02:56:23.517Z,0.00
2018-07-31T02:57:23.458Z,0.00
2018-07-31T02:58:23.400Z,0.00
2018-07-31T02:59:23.340Z,0.00
2018-07-31T03:00:23.286Z,0.00
2018-07-31T03:01:23.224Z,0.00
2018-07-31T03:02:23.165Z,0.00
2018-07-31T03:03:23.105Z,0.00
2018-07-31T03:04:23.051Z,0.00
2018-07-31T03:05:22.990Z,0.00
2018-07-31T03:06:22.930Z,0.00
2018-07-31T03:07:22.875Z,0.00
2018-07-31T03:08:22.815Z,0.00
2018-07-31T03:09:22.756Z,0.00
2018-07-31T03:10:22.697Z,0.00
2018-07-31T03:11:22.640Z,0.00
2018-07-31T03:12:22.580Z,0.00
2018-07-31T03:13:22.528Z,0.00
2018-07-31T03:14:22.468Z,0.00
2018-07-31T03:15:22.403Z,0.00
2018-07-31T03:16:22.346Z,0.00
2018-07-31T03:17:22.291Z,0.00
2018-07-31T03:18:22.228Z,0.00
2018-07-31T03:19:22.169Z,0.00
2018-07-31T03:20:22.111Z,4.00
2018-07-31T03:21:22.051Z,4.00
2018-07-31T03:22:21.994Z,0.00
2018-07-31T03:23:21.936Z,0.00
2018-07-31T03:24:21.878Z,4.00
2018-07-31T03:25:21.817Z,0.00
2018-07-31T03:26:21.760Z,4.00
2018-07-31T03:27:21.702Z,4.00
2018-07-31T03:28:21.643Z,4.00
2018-07-31T03:29:21.585Z,8.00
2018-07-31T03:30:21.525Z,8.00
2018-07-31T03:31:21.466Z,8.00
2018-07-31T03:32:21.407Z,8.00
2018-07-31T03:33:21.350Z,8.00
2018-07-31T03:34:21.289Z,12.00
2018-07-31T03:35:21.233Z,16.00
2018-07-31T03:36:21.173Z,16.00
2018-07-31T03:37:21.115Z,16.00
2018-07-31T03:38:21.055Z,20.00
2018-07-31T03:39:21.000Z,20.00
2018-07-31T03:40:20.938Z,24.00
2018-07-31T03:41:20.880Z,28.00
2018-07-31T03:42:20.820Z,32.00
2018-07-31T03:43:20.762Z,36.00
2018-07-31T03:44:20.704Z,36.00
2018-07-31T03:45:20.647Z,44.00
2018-07-31T03:46:20.586Z,44.00
2018-07-31T03:47:20.528Z,52.00
2018-07-31T03:48:20.471Z,52.00
2018-07-31T03:49:20.408Z,60.00
2018-07-31T03:50:20.352Z,64.00
2018-07-31T03:51:20.293Z,68.00
2018-07-31T03:52:20.234Z,76.00
2018-07-31T03:53:20.177Z,80.00
2018-07-31T03:54:20.118Z,84.00
2018-07-31T03:55:20.060Z,96.00
2018-07-31T03:56:20.036Z,100.00
2018-07-31T03:57:19.940Z,104.00
2018-07-31T03:58:19.881Z,112.00
2018-07-31T03:59:19.827Z,120.00
2018-07-31T04:00:19.762Z,128.00
2018-07-31T04:01:19.705Z,136.00
2018-07-31T04:02:19.647Z,144.00
2018-07-31T04:03:19.589Z,156.00
2018-07-31T04:04:19.532Z,160.00
2018-07-31T04:05:19.519Z,168.00
2018-07-31T04:06:19.412Z,180.00
2018-07-31T04:07:19.354Z,192.00
2018-07-31T04:08:19.304Z,200.00
2018-07-31T04:09:19.234Z,212.00
2018-07-31T04:10:19.177Z,220.00
2018-07-31T04:11:19.120Z,232.00
2018-07-31T04:12:19.059Z,244.00
2018-07-31T04:13:19.001Z,252.00
2018-07-31T04:14:18.943Z,264.00
2018-07-31T04:15:18.884Z,280.00
2018-07-31T04:16:18.825Z,288.00
2018-07-31T04:17:18.768Z,300.00
2018-07-31T04:18:18.712Z,312.00
2018-07-31T04:19:18.648Z,324.00
2018-07-31T04:20:18.595Z,336.00
2018-07-31T04:21:18.532Z,348.00
2018-07-31T04:22:18.473Z,364.00
2018-07-31T04:23:18.416Z,372.00
2018-07-31T04:24:18.355Z,384.00
2018-07-31T04:25:18.301Z,400.00
2018-07-31T04:26:18.237Z,412.00
2018-07-31T04:27:18.178Z,424.00
2018-07-31T04:28:18.120Z,436.00
2018-07-31T04:29:18.065Z,452.00
2018-07-31T04:30:18.004Z,464.00
2018-07-31T04:31:17.946Z,476.00
2018-07-31T04:32:17.888Z,492.00
2018-07-31T04:33:17.829Z,504.00
2018-07-31T04:34:17.769Z,520.00
2018-07-31T04:35:17.710Z,532.00
2018-07-31T04:36:17.687Z,548.00
2018-07-31T04:37:17.593Z,560.00
2018-07-31T04:38:17.540Z,572.00
2018-07-31T04:39:17.475Z,588.00
2018-07-31T04:40:17.416Z,604.00
2018-07-31T04:41:17.414Z,612.00
2018-07-31T04:42:17.316Z,628.00
2018-07-31T04:43:17.240Z,640.00
2018-07-31T04:44:17.181Z,656.00
2018-07-31T04:45:17.123Z,672.00
2018-07-31T04:46:17.064Z,684.00
2018-07-31T04:47:17.006Z,704.00
2018-07-31T04:48:16.947Z,716.00
2018-07-31T04:49:16.890Z,728.00
2018-07-31T04:50:16.845Z,748.00
2018-07-31T04:51:16.769Z,760.00
2018-07-31T04:52:16.711Z,776.00
2018-07-31T04:53:16.657Z,788.00
2018-07-31T04:54:16.594Z,808.00
2018-07-31T04:55:16.537Z,820.00
2018-07-31T04:56:16.479Z,832.00
2018-07-31T04:57:16.419Z,848.00
2018-07-31T04:58:16.360Z,864.00
2018-07-31T04:59:16.301Z,880.00
2018-07-31T05:00:16.243Z,892.00
2018-07-31T05:01:16.190Z,904.00
2018-07-31T05:02:16.127Z,920.00
2018-07-31T05:03:16.068Z,932.00
2018-07-31T05:04:16.023Z,948.00
2018-07-31T05:05:15.953Z,964.00
2018-07-31T05:06:15.891Z,976.00
2018-07-31T05:07:15.833Z,984.00
2018-07-31T05:08:15.776Z,1000.00
2018-07-31T05:09:15.716Z,1016.00
2018-07-31T05:10:15.657Z,1028.00
2018-07-31T05:11:15.599Z,1040.00
2018-07-31T05:12:15.541Z,1060.00
2018-07-31T05:13:15.482Z,1072.00
2018-07-31T05:14:15.424Z,1088.00
2018-07-31T05:15:15.369Z,1096.00
2018-07-31T05:16:15.308Z,1112.00
2018-07-31T05:17:15.250Z,1124.00
2018-07-31T05:18:15.228Z,1136.00
2018-07-31T05:19:15.130Z,1148.00
2018-07-31T05:20:15.078Z,1160.00
2018-07-31T05:21:15.016Z,1176.00
2018-07-31T05:22:14.956Z,1184.00
2018-07-31T05:23:14.899Z,1204.00
2018-07-31T05:24:14.841Z,1216.00
2018-07-31T05:25:14.805Z,1228.00
2018-07-31T05:26:14.724Z,1244.00
2018-07-31T05:27:14.666Z,1260.00
2018-07-31T05:28:14.607Z,1272.00
2018-07-31T05:29:14.549Z,1284.00
2018-07-31T05:30:14.489Z,1300.00
2018-07-31T05:31:14.431Z,1312.00
2018-07-31T05:32:14.372Z,1328.00
2018-07-31T05:33:14.314Z,1340.00
2018-07-31T05:34:14.256Z,1360.00
2018-07-31T05:35:14.198Z,1372.00
2018-07-31T05:36:14.140Z,1388.00
2018-07-31T05:37:14.081Z,1404.00
2018-07-31T05:38:14.022Z,1420.00
2018-07-31T05:39:13.965Z,1440.00
2018-07-31T05:40:13.908Z,1452.00
2018-07-31T05:41:13.853Z,1468.00
2018-07-31T05:42:13.788Z,1480.00
2018-07-31T05:43:13.733Z,1496.00
2018-07-31T05:44:13.674Z,1504.00
2018-07-31T05:45:13.616Z,1520.00
2018-07-31T05:46:13.571Z,1532.00
2018-07-31T05:47:13.499Z,1548.00
2018-07-31T05:48:13.442Z,1564.00
2018-07-31T05:49:13.382Z,1580.00
2018-07-31T05:50:13.327Z,1596.00
2018-07-31T05:51:13.266Z,1612.00
2018-07-31T05:52:13.208Z,1624.00
2018-07-31T05:53:13.151Z,1636.00
2018-07-31T05:54:13.092Z,1648.00
2018-07-31T05:55:13.034Z,1652.00
2018-07-31T05:56:12.977Z,1672.00
2018-07-31T05:57:12.919Z,1688.00
2018-07-31T05:58:12.860Z,1696.00
2018-07-31T05:59:12.802Z,1712.00
2018-07-31T06:00:12.744Z,1728.00
2018-07-31T06:01:12.690Z,1740.00
2018-07-31T06:02:12.628Z,1752.00
2018-07-31T06:03:12.573Z,1764.00
2018-07-31T06:04:12.513Z,1776.00
2018-07-31T06:05:12.456Z,1788.00
2018-07-31T06:06:12.398Z,1796.00
2018-07-31T06:07:12.342Z,1804.00
2018-07-31T06:08:12.282Z,1816.00
2018-07-31T06:09:12.226Z,1828.00
2018-07-31T06:10:12.165Z,1840.00
2018-07-31T06:11:12.126Z,1852.00
2018-07-31T06:12:12.051Z,1864.00
2018-07-31T06:13:11.993Z,1880.00
2018-07-31T06:14:11.932Z,1896.00
2018-07-31T06:15:11.879Z,1912.00
2018-07-31T06:16:11.820Z,1924.00
2018-07-31T06:17:11.761Z,1940.00
2018-07-31T06:18:11.704Z,1952.00
2018-07-31T06:19:11.648Z,1972.00
2018-07-31T06:20:11.591Z,1992.00
2018-07-31T06:21:11.531Z,2004.00
2018-07-31T06:22:11.473Z,2024.00
2018-07-31T06:23:11.416Z,2044.00
2018-07-31T06:24:11.359Z,2060.00
2018-07-31T06:25:11.302Z,2080.00
2018-07-31T06:26:11.243Z,2092.00
2018-07-31T06:27:11.191Z,2104.00
2018-07-31T06:28:11.129Z,2112.00
2018-07-31T06:29:11.072Z,2120.00
2018-07-31T06:30:11.013Z,2124.00
2018-07-31T06:31:10.956Z,2132.00
2018-07-31T06:32:10.899Z,2140.00
2018-07-31T06:33:10.845Z,2152.00
2018-07-31T06:34:10.784Z,2164.00
2018-07-31T06:35:10.726Z,2176.00
2018-07-31T06:36:10.671Z,2192.00
2018-07-31T06:37:10.614Z,2204.00
2018-07-31T06:38:10.554Z,2220.00
2018-07-31T06:39:10.502Z,2232.00
2018-07-31T06:40:10.437Z,2240.00
2018-07-31T06:41:10.385Z,2252.00
2018-07-31T06:42:10.329Z,2260.00
2018-07-31T06:43:10.269Z,2268.00
2018-07-31T06:44:10.213Z,2280.00
2018-07-31T06:45:10.155Z,2292.00
2018-07-31T06:46:10.100Z,2308.00
2018-07-31T06:47:10.041Z,2320.00
2018-07-31T06:48:09.985Z,2336.00
2018-07-31T06:49:09.977Z,2344.00
2018-07-31T06:50:09.869Z,2356.00
2018-07-31T06:51:09.813Z,2364.00
2018-07-31T06:52:09.757Z,2376.00
2018-07-31T06:53:09.701Z,2388.00
2018-07-31T06:54:09.644Z,2392.00
2018-07-31T06:55:09.588Z,2400.00
2018-07-31T06:56:09.530Z,2412.00
2018-07-31T06:57:09.473Z,2420.00
2018-07-31T06:58:09.418Z,2436.00
2018-07-31T06:59:09.359Z,2452.00
2018-07-31T07:00:09.304Z,2464.00
2018-07-31T07:01:09.246Z,2480.00
2018-07-31T07:02:09.254Z,2492.00
2018-07-31T07:03:09.132Z,2504.00
2018-07-31T07:04:09.077Z,2512.00
2018-07-31T07:05:09.020Z,2520.00
2018-07-31T07:06:08.963Z,2528.00
2018-07-31T07:07:08.906Z,2536.00
2018-07-31T07:08:08.851Z,2548.00
2018-07-31T07:09:08.828Z,2556.00
2018-07-31T07:10:08.740Z,2568.00
2018-07-31T07:11:08.684Z,2584.00
2018-07-31T07:12:08.624Z,2596.00
2018-07-31T07:13:08.573Z,2616.00
2018-07-31T07:14:08.516Z,2624.00
2018-07-31T07:15:08.456Z,2640.00
2018-07-31T07:16:08.400Z,2648.00
2018-07-31T07:17:08.345Z,2660.00
2018-07-31T07:18:08.287Z,2668.00
2018-07-31T07:19:08.231Z,2676.00
2018-07-31T07:20:08.173Z,2692.00
2018-07-31T07:21:08.119Z,2704.00
2018-07-31T07:22:08.063Z,2716.00
2018-07-31T07:23:08.008Z,2732.00
2018-07-31T07:24:07.951Z,2740.00
2018-07-31T07:25:07.894Z,2752.00
2018-07-31T07:26:07.839Z,2764.00
2018-07-31T07:27:07.783Z,2772.00
2018-07-31T07:28:07.732Z,2784.00
2018-07-31T07:29:07.670Z,2788.00
2018-07-31T07:30:07.615Z,2800.00
2018-07-31T07:31:07.558Z,2800.00
2018-07-31T07:32:07.503Z,2808.00
2018-07-31T07:33:07.445Z,2824.00
2018-07-31T07:34:07.391Z,2832.00
2018-07-31T07:35:07.337Z,2848.00
2018-07-31T07:36:07.279Z,2844.00
2018-07-31T07:37:07.223Z,2864.00
2018-07-31T07:38:07.167Z,2872.00
2018-07-31T07:39:07.110Z,2888.00
2018-07-31T07:40:07.109Z,2900.00
2018-07-31T07:41:07.000Z,2908.00
2018-07-31T07:42:06.945Z,2916.00
2018-07-31T07:43:06.889Z,2932.00
2018-07-31T07:44:06.832Z,2936.00
2018-07-31T07:45:06.777Z,2948.00
2018-07-31T07:46:06.721Z,2952.00
2018-07-31T07:47:06.665Z,2960.00
2018-07-31T07:48:06.613Z,2964.00
2018-07-31T07:49:06.556Z,2968.00
2018-07-31T07:50:06.497Z,2976.00
2018-07-31T07:51:06.440Z,2984.00
2018-07-31T07:52:06.388Z,2988.00
2018-07-31T07:53:06.332Z,2996.00
2018-07-31T07:54:06.333Z,3004.00
2018-07-31T07:55:06.220Z,3012.00
2018-07-31T07:56:06.165Z,3016.00
2018-07-31T07:57:06.110Z,3024.00
2018-07-31T07:58:06.054Z,3028.00
2018-07-31T07:59:05.999Z,3024.00
2018-07-31T08:00:05.942Z,3024.00
2018-07-31T08:01:05.886Z,3032.00
2018-07-31T08:02:05.830Z,3040.00
2018-07-31T08:03:05.775Z,3052.00
2018-07-31T08:04:05.746Z,3056.00
2018-07-31T08:05:05.664Z,3064.00
2018-07-31T08:06:05.608Z,3072.00
2018-07-31T08:07:05.553Z,3080.00
2018-07-31T08:08:05.498Z,3084.00
2018-07-31T08:09:05.443Z,3080.00
2018-07-31T08:10:05.387Z,3096.00
2018-07-31T08:11:05.333Z,3096.00
2018-07-31T08:12:05.278Z,3100.00
2018-07-31T08:13:05.221Z,3112.00
2018-07-31T08:14:05.166Z,3116.00
2018-07-31T08:15:05.202Z,3120.00
2018-07-31T08:16:05.056Z,3128.00
2018-07-31T08:17:05.001Z,3128.00
2018-07-31T08:18:04.946Z,3132.00
2018-07-31T08:19:04.890Z,3132.00
2018-07-31T08:20:04.834Z,3136.00
2018-07-31T08:21:04.783Z,3132.00
2018-07-31T08:22:04.724Z,3132.00
2018-07-31T08:23:04.677Z,3132.00
2018-07-31T08:24:04.613Z,3140.00
2018-07-31T08:25:04.559Z,3148.00
2018-07-31T08:26:04.503Z,3148.00
2018-07-31T08:27:04.453Z,3156.00
2018-07-31T08:28:04.392Z,3168.00
2018-07-31T08:29:04.338Z,3164.00
2018-07-31T08:30:04.283Z,3172.00
2018-07-31T08:31:04.229Z,3184.00
2018-07-31T08:32:04.172Z,3188.00
2018-07-31T08:33:04.118Z,3196.00
2018-07-31T08:34:04.064Z,3208.00
2018-07-31T08:35:04.008Z,3208.00
2018-07-31T08:36:03.954Z,3204.00
2018-07-31T08:37:03.899Z,3208.00
2018-07-31T08:38:03.841Z,3216.00
2018-07-31T08:39:03.789Z,3224.00
2018-07-31T08:40:03.736Z,3232.00
2018-07-31T08:41:03.682Z,3240.00
2018-07-31T08:42:03.624Z,3244.00
2018-07-31T08:43:03.569Z,3256.00
2018-07-31T08:44:03.515Z,3260.00
2018-07-31T08:45:03.461Z,3272.00
2018-07-31T08:46:03.408Z,3280.00
2018-07-31T08:47:03.351Z,3292.00
2018-07-31T08:48:03.296Z,3308.00
2018-07-31T08:49:03.244Z,3328.00
2018-07-31T08:50:03.189Z,3340.00
2018-07-31T08:51:03.135Z,3352.00
2018-07-31T08:52:03.079Z,3372.00
2018-07-31T08:53:03.024Z,3388.00
2018-07-31T08:54:02.969Z,3396.00
2018-07-31T08:55:02.913Z,3412.00
2018-07-31T08:56:02.860Z,3432.00
2018-07-31T08:57:02.819Z,3456.00
2018-07-31T08:58:02.751Z,3476.00
2018-07-31T08:59:02.699Z,3488.00
2018-07-31T09:00:02.643Z,3500.00
2018-07-31T09:01:02.592Z,3512.00
2018-07-31T09:02:02.534Z,3532.00
2018-07-31T09:03:02.481Z,3552.00
2018-07-31T09:04:02.427Z,3572.00
2018-07-31T09:05:02.372Z,3588.00
2018-07-31T09:06:02.317Z,3600.00
2018-07-31T09:07:02.262Z,3616.00
2018-07-31T09:08:02.212Z,3624.00
2018-07-31T09:09:02.157Z,3636.00
2018-07-31T09:10:02.100Z,3648.00
2018-07-31T09:11:02.048Z,3664.00
2018-07-31T09:12:01.994Z,3684.00
2018-07-31T09:13:01.940Z,3696.00
2018-07-31T09:14:01.889Z,3692.00
2018-07-31T09:15:01.843Z,3712.00
2018-07-31T09:16:01.777Z,3728.00
2018-07-31T09:17:01.723Z,3748.00
2018-07-31T09:18:01.669Z,3748.00
2018-07-31T09:19:01.630Z,3772.00
2018-07-31T09:20:01.563Z,3784.00
2018-07-31T09:21:01.507Z,3796.00
2018-07-31T09:22:01.458Z,3800.00
2018-07-31T09:23:01.400Z,3820.00
2018-07-31T09:24:01.346Z,3828.00
2018-07-31T09:25:01.302Z,3852.00
2018-07-31T09:26:01.238Z,3864.00
2018-07-31T09:27:01.184Z,3888.00
2018-07-31T09:28:01.130Z,3900.00
2018-07-31T09:29:01.076Z,3912.00
2018-07-31T09:30:01.022Z,3916.00
2018-07-31T09:31:01.141Z,3904.00
2018-07-31T09:32:00.932Z,3928.00
2018-07-31T09:33:00.862Z,3948.00
2018-07-31T09:34:00.807Z,3952.00
2018-07-31T09:35:00.754Z,3952.00
2018-07-31T09:36:00.700Z,3976.00
2018-07-31T09:37:00.649Z,4004.00
2018-07-31T09:38:00.608Z,4032.00
2018-07-31T09:39:00.539Z,4044.00
2018-07-31T09:40:00.486Z,4064.00
2018-07-31T09:41:00.434Z,4100.00
2018-07-31T09:42:00.380Z,4132.00
2018-07-31T09:43:00.326Z,4172.00
2018-07-31T09:44:00.274Z,4240.00
2018-07-31T09:45:00.221Z,4416.00
2018-07-31T09:46:00.166Z,4696.00
2018-07-31T09:47:00.114Z,5300.00
2018-07-31T09:48:00.067Z,6356.00
2018-07-31T09:49:00.012Z,7508.00
2018-07-31T09:49:59.954Z,8264.00
2018-07-31T09:50:59.899Z,8520.00
2018-07-31T09:51:59.853Z,8776.00
2018-07-31T09:52:59.800Z,8932.00
2018-07-31T09:53:59.747Z,9072.00
2018-07-31T09:54:59.697Z,9204.00
2018-07-31T09:55:59.645Z,9360.00
2018-07-31T09:56:59.595Z,9460.00
2018-07-31T09:57:59.543Z,9556.00
2018-07-31T09:58:59.501Z,9588.00
2018-07-31T09:59:59.444Z,9696.00
2018-07-31T10:00:59.394Z,9880.00
2018-07-31T10:01:59.352Z,10500.00
2018-07-31T10:02:59.295Z,11124.00
2018-07-31T10:03:59.246Z,11716.00
2018-07-31T10:04:59.221Z,12344.00
2018-07-31T10:05:59.151Z,13064.00
2018-07-31T10:06:59.103Z,13312.00
2018-07-31T10:07:59.054Z,14368.00
2018-07-31T10:08:59.007Z,16928.00
2018-07-31T10:09:58.958Z,17024.00
2018-07-31T10:10:58.911Z,15392.00
2018-07-31T10:11:58.882Z,14304.00
2018-07-31T10:12:58.817Z,13104.00
2018-07-31T10:13:58.771Z,12104.00
2018-07-31T10:14:58.725Z,10776.00
2018-07-31T10:15:58.679Z,9876.00
2018-07-31T10:16:58.634Z,9316.00
2018-07-31T10:17:58.680Z,8840.00
2018-07-31T10:18:58.539Z,8380.00
2018-07-31T10:19:58.492Z,8108.00
2018-07-31T10:20:58.447Z,7956.00
2018-07-31T10:21:58.401Z,7924.00
2018-07-31T10:22:58.355Z,7760.00
2018-07-31T10:23:58.310Z,7544.00
2018-07-31T10:24:58.263Z,7480.00
2018-07-31T10:25:58.224Z,7412.00
2018-07-31T10:26:58.171Z,7280.00
2018-07-31T10:27:58.128Z,6968.00
2018-07-31T10:28:58.080Z,6704.00
2018-07-31T10:29:58.035Z,6664.00
2018-07-31T10:30:58.066Z,6632.00
2018-07-31T10:31:57.948Z,6228.00
2018-07-31T10:32:57.901Z,2308.00
2018-07-31T10:33:57.856Z,2088.00
2018-07-31T10:34:57.806Z,2296.00
2018-07-31T10:35:57.764Z,4972.00
2018-07-31T10:36:57.716Z,1736.00
2018-07-31T10:37:57.669Z,1712.00
2018-07-31T10:38:57.627Z,6032.00
2018-07-31T10:39:57.576Z,6084.00
2018-07-31T10:40:57.531Z,6036.00
2018-07-31T10:41:57.481Z,5976.00
2018-07-31T10:42:57.436Z,6024.00
2018-07-31T10:43:57.422Z,6016.00
2018-07-31T10:44:57.339Z,5960.00
2018-07-31T10:45:57.291Z,5944.00
2018-07-31T10:46:57.244Z,5868.00
2018-07-31T10:47:57.200Z,5840.00
2018-07-31T10:48:57.159Z,5892.00
2018-07-31T10:49:57.103Z,5852.00
2018-07-31T10:50:57.057Z,5656.00
2018-07-31T10:51:57.008Z,5616.00
2018-07-31T10:52:56.959Z,5632.00
2018-07-31T10:53:56.912Z,5592.00
2018-07-31T10:54:56.870Z,5608.00
2018-07-31T10:55:56.816Z,5556.00
2018-07-31T10:56:56.769Z,5508.00
2018-07-31T10:57:56.756Z,5532.00
2018-07-31T10:58:56.676Z,5556.00
2018-07-31T10:59:56.653Z,5564.00
2018-07-31T11:00:56.582Z,5560.00
2018-07-31T11:01:56.533Z,5448.00
2018-07-31T11:02:56.589Z,5408.00
2018-07-31T11:03:56.517Z,5352.00
2018-07-31T11:04:56.394Z,5292.00
2018-07-31T11:05:56.346Z,5244.00
2018-07-31T11:06:56.299Z,5152.00
2018-07-31T11:07:56.252Z,5096.00
2018-07-31T11:08:56.208Z,5012.00
2018-07-31T11:09:56.158Z,4928.00
2018-07-31T11:10:56.112Z,4844.00
2018-07-31T11:11:56.067Z,4720.00
2018-07-31T11:12:56.018Z,4620.00
2018-07-31T11:13:55.969Z,4556.00
2018-07-31T11:14:55.922Z,4492.00
2018-07-31T11:15:55.880Z,4444.00
2018-07-31T11:16:55.828Z,4368.00
2018-07-31T11:17:55.783Z,4304.00
2018-07-31T11:18:55.732Z,4120.00
2018-07-31T11:19:55.683Z,3728.00
2018-07-31T11:20:55.691Z,3524.00
2018-07-31T11:21:55.591Z,3188.00
2018-07-31T11:22:55.540Z,3140.00
2018-07-31T11:23:55.492Z,3148.00
2018-07-31T11:24:55.445Z,3128.00
2018-07-31T11:25:55.395Z,3168.00
2018-07-31T11:26:55.346Z,3160.00
2018-07-31T11:27:55.297Z,3164.00
2018-07-31T11:28:55.247Z,3188.00
2018-07-31T11:29:55.198Z,3160.00
2018-07-31T11:30:55.149Z,3136.00
2018-07-31T11:31:55.100Z,3096.00
2018-07-31T11:32:55.059Z,3116.00
2018-07-31T11:33:54.999Z,3124.00
2018-07-31T11:34:54.947Z,3104.00
2018-07-31T11:35:54.897Z,3096.00
2018-07-31T11:36:54.844Z,3056.00
2018-07-31T11:37:54.794Z,2984.00
2018-07-31T11:38:54.744Z,2944.00
2018-07-31T11:39:54.692Z,2960.00
2018-07-31T11:40:54.643Z,2932.00
2018-07-31T11:41:54.592Z,2936.00
2018-07-31T11:42:54.538Z,2920.00
2018-07-31T11:43:54.523Z,2908.00
2018-07-31T11:44:54.437Z,2872.00
2018-07-31T11:45:54.385Z,2860.00
2018-07-31T11:46:54.335Z,2876.00
2018-07-31T11:47:54.281Z,2868.00
2018-07-31T11:48:54.234Z,2816.00
2018-07-31T11:49:54.318Z,2744.00
2018-07-31T11:50:54.127Z,2712.00
2018-07-31T11:51:54.075Z,2656.00
2018-07-31T11:52:54.022Z,2656.00
2018-07-31T11:53:53.969Z,2668.00
2018-07-31T11:54:53.919Z,2668.00
2018-07-31T11:55:53.864Z,2696.00
2018-07-31T11:56:53.814Z,2720.00
2018-07-31T11:57:53.761Z,2708.00
2018-07-31T11:58:53.711Z,2716.00
2018-07-31T11:59:53.655Z,2736.00
2018-07-31T12:00:53.605Z,2748.00
2018-07-31T12:01:53.550Z,2760.00
2018-07-31T12:02:53.501Z,2772.00
2018-07-31T12:03:53.445Z,2772.00
2018-07-31T12:04:53.396Z,2752.00
2018-07-31T12:05:53.340Z,2728.00
2018-07-31T12:06:53.287Z,2696.00
2018-07-31T12:07:53.237Z,2672.00
2018-07-31T12:08:53.181Z,2656.00
2018-07-31T12:09:53.165Z,2648.00
2018-07-31T12:10:53.076Z,2656.00
2018-07-31T12:11:53.024Z,2648.00
2018-07-31T12:12:52.971Z,2648.00
2018-07-31T12:13:52.934Z,2648.00
2018-07-31T12:14:52.868Z,2672.00
2018-07-31T12:15:52.816Z,2708.00
2018-07-31T12:16:52.766Z,2724.00
2018-07-31T12:17:52.707Z,2704.00
2018-07-31T12:18:52.656Z,2700.00
2018-07-31T12:19:52.604Z,2704.00
2018-07-31T12:20:52.600Z,2748.00
2018-07-31T12:21:52.501Z,2812.00
2018-07-31T12:22:52.445Z,2800.00
2018-07-31T12:23:52.393Z,2856.00
2018-07-31T12:24:52.341Z,2880.00
2018-07-31T12:25:52.287Z,2908.00
2018-07-31T12:26:52.255Z,2928.00
2018-07-31T12:27:52.183Z,2960.00